Time;durP1;ratioP1;P1;durP2;ratioP2;P2;SDS_P1;SDS_P2;PMS_P1;PMS_P2;Temp;Humidity;BMP_temperature;BMP_pressure;BME280_temperature;BME280_humidity;BME280_pressure;Samples;Min_cycle;Max_cycle;Signal;HPM_P1;HPM_P2
2023/01/28 05:03:46;;;;;;;4.25;3.78;;;1.70;99.90;;;;;;6144922;22;20203;-63
2023/01/28 05:06:11;;;;;;;5.43;4.73;;;1.70;99.90;;;;;;5019055;28;20206;-64
2023/01/28 05:08:37;;;;;;;6.57;4.20;;;1.70;99.90;;;;;;5016518;28;20171;-62
2023/01/28 05:11:03;;;;;;;5.70;3.80;;;1.70;99.90;;;;;;5015733;28;20189;-63
2023/01/28 05:13:28;;;;;;;3.30;2.90;;;1.60;99.90;;;;;;5015983;28;20544;-64
2023/01/28 05:15:54;;;;;;;10.03;5.33;;;1.60;99.90;;;;;;5016286;28;20171;-62
2023/01/28 05:18:19;;;;;;;6.30;5.30;;;1.70;99.90;;;;;;5016214;28;20205;-64
2023/01/28 05:20:45;;;;;;;10.30;4.70;;;1.70;99.90;;;;;;5016316;28;20528;-64
2023/01/28 05:23:12;;;;;;;7.90;5.57;;;1.70;99.90;;;;;;5015837;28;20536;-64
2023/01/28 05:25:38;;;;;;;6.78;4.75;;;1.70;99.90;;;;;;5015926;28;20603;-64
2023/01/28 05:28:04;;;;;;;5.20;2.70;;;1.70;99.90;;;;;;5016116;28;20171;-64
2023/01/28 05:30:29;;;;;;;5.55;4.95;;;1.70;99.90;;;;;;5015763;28;20175;-64
2023/01/28 05:32:56;;;;;;;6.77;4.00;;;1.70;99.90;;;;;;5015597;28;20265;-64
2023/01/28 05:35:22;;;;;;;6.03;4.00;;;1.70;99.90;;;;;;5014633;28;20187;-64
2023/01/28 05:37:48;;;;;;;4.93;4.03;;;1.80;99.90;;;;;;5015872;28;20230;-63
2023/01/28 05:40:13;;;;;;;4.80;3.93;;;1.80;99.90;;;;;;5015909;28;20288;-63
2023/01/28 05:42:39;;;;;;;6.63;4.30;;;1.80;99.90;;;;;;5015543;28;20493;-63
2023/01/28 05:45:05;;;;;;;3.93;3.47;;;1.80;99.90;;;;;;5015427;28;20187;-64
2023/01/28 05:47:32;;;;;;;4.75;4.00;;;1.90;99.90;;;;;;5015752;28;20254;-63
2023/01/28 05:49:58;;;;;;;4.97;4.00;;;1.90;99.90;;;;;;5015555;28;20276;-63
2023/01/28 05:52:23;;;;;;;4.60;4.20;;;1.90;99.90;;;;;;5015467;28;20179;-63
2023/01/28 05:54:49;;;;;;;8.77;4.90;;;1.90;99.90;;;;;;5015142;28;20685;-64
2023/01/28 05:57:14;;;;;;;6.63;5.00;;;1.90;99.90;;;;;;5015304;28;20225;-63
2023/01/28 05:59:40;;;;;;;6.30;4.33;;;2.00;99.90;;;;;;5015570;28;20183;-63
2023/01/28 06:02:06;;;;;;;7.27;6.10;;;1.90;99.90;;;;;;5015413;28;20202;-64
2023/01/28 06:04:31;;;;;;;5.77;5.00;;;1.90;99.90;;;;;;5014885;28;20575;-64
2023/01/28 06:06:57;;;;;;;9.50;7.57;;;1.80;99.90;;;;;;5015026;28;20186;-64
2023/01/28 06:09:22;;;;;;;4.77;4.33;;;1.80;99.90;;;;;;5015160;28;20170;-63
2023/01/28 06:11:49;;;;;;;5.30;4.40;;;1.90;99.90;;;;;;5015095;28;20178;-64
2023/01/28 06:14:14;;;;;;;5.82;5.00;;;1.90;99.90;;;;;;5013367;28;20191;-64
2023/01/28 06:16:40;;;;;;;5.30;4.23;;;1.90;99.90;;;;;;5015049;28;20175;-64
2023/01/28 06:19:05;;;;;;;6.37;4.97;;;1.80;99.90;;;;;;5014838;28;20730;-63
2023/01/28 06:21:31;;;;;;;9.00;5.30;;;1.80;99.90;;;;;;5014854;28;20171;-63
2023/01/28 06:23:57;;;;;;;5.13;4.40;;;1.80;99.90;;;;;;5014543;28;20186;-64
2023/01/28 06:26:22;;;;;;;6.77;4.70;;;1.80;99.90;;;;;;5014924;28;20549;-63
2023/01/28 06:28:48;;;;;;;5.50;4.77;;;1.80;99.90;;;;;;5014917;28;20293;-63
2023/01/28 06:31:13;;;;;;;6.47;4.53;;;1.80;99.90;;;;;;5014141;28;20593;-63
2023/01/28 06:33:39;;;;;;;6.40;5.17;;;1.80;99.90;;;;;;5014054;28;20225;-63
2023/01/28 06:36:05;;;;;;;6.20;4.60;;;1.80;99.90;;;;;;5017726;28;20206;-63
2023/01/28 06:38:31;;;;;;;8.90;4.95;;;1.80;99.90;;;;;;5028761;28;20244;-63
2023/01/28 06:40:57;;;;;;;6.83;5.53;;;1.80;99.90;;;;;;5034046;28;20170;-63
2023/01/28 06:43:26;;;;;;;7.50;5.00;;;1.80;99.90;;;;;;5033503;28;20748;-63
2023/01/28 06:45:53;;;;;;;5.45;4.63;;;1.80;99.90;;;;;;5031068;28;20427;-63
2023/01/28 06:48:19;;;;;;;5.63;4.53;;;1.80;99.90;;;;;;5034422;28;20170;-64
2023/01/28 06:50:48;;;;;;;6.68;5.30;;;1.90;99.90;;;;;;5023259;28;20179;-64
2023/01/28 06:53:16;;;;;;;4.85;4.20;;;1.90;99.90;;;;;;5013879;28;20202;-63
2023/01/28 06:55:41;;;;;;;7.22;5.43;;;1.90;99.90;;;;;;5014396;28;20199;-63
2023/01/28 06:58:07;;;;;;;6.33;4.80;;;2.00;99.90;;;;;;5014348;28;20201;-63
2023/01/28 07:00:33;;;;;;;7.20;4.70;;;1.90;99.90;;;;;;5014437;28;20167;-63
2023/01/28 07:02:58;;;;;;;4.77;4.37;;;1.90;99.90;;;;;;5015084;28;20167;-64
2023/01/28 07:05:24;;;;;;;5.20;4.70;;;1.90;99.90;;;;;;5026792;28;20201;-63
2023/01/28 07:07:50;;;;;;;7.57;5.32;;;1.90;99.90;;;;;;5033887;28;20236;-63
2023/01/28 07:10:16;;;;;;;8.67;4.67;;;1.90;99.90;;;;;;5032782;28;20185;-64
2023/01/28 07:12:42;;;;;;;5.73;4.53;;;1.90;99.90;;;;;;5032584;28;20178;-63
2023/01/28 07:15:09;;;;;;;10.40;5.40;;;1.90;99.90;;;;;;5029101;28;20444;-63
2023/01/28 07:17:38;;;;;;;5.22;4.53;;;1.90;99.90;;;;;;5033715;28;20205;-63
2023/01/28 07:20:04;;;;;;;8.77;5.55;;;1.90;99.90;;;;;;5024742;28;20175;-64
2023/01/28 07:22:30;;;;;;;6.13;4.13;;;1.80;99.90;;;;;;5025683;28;20177;-64
2023/01/28 07:24:57;;;;;;;6.47;4.80;;;1.90;99.90;;;;;;5032986;28;20625;-63
2023/01/28 07:27:23;;;;;;;6.47;3.95;;;1.90;99.90;;;;;;5033656;28;20189;-63
2023/01/28 07:29:48;;;;;;;4.80;4.20;;;1.90;99.90;;;;;;5033671;28;20174;-64
2023/01/28 07:32:14;;;;;;;6.23;5.20;;;1.90;99.90;;;;;;5033211;28;20635;-63
2023/01/28 07:34:41;;;;;;;5.17;4.50;;;2.00;99.90;;;;;;5024802;28;20190;-64
2023/01/28 07:37:08;;;;;;;4.65;3.88;;;2.00;99.90;;;;;;5013709;28;20565;-63
2023/01/28 07:39:33;;;;;;;4.88;4.13;;;2.00;99.90;;;;;;5013553;28;20684;-62
2023/01/28 07:42:00;;;;;;;6.03;5.10;;;2.10;99.90;;;;;;5013493;28;20175;-63
2023/01/28 07:44:26;;;;;;;8.25;6.60;;;2.10;99.90;;;;;;5013068;28;20341;-62
2023/01/28 07:46:52;;;;;;;6.97;4.30;;;2.20;99.90;;;;;;5014355;28;20194;-63
2023/01/28 07:49:18;;;;;;;7.60;5.25;;;2.20;99.90;;;;;;5013331;28;20197;-63
2023/01/28 07:51:45;;;;;;;7.90;5.47;;;2.30;99.90;;;;;;5013446;28;20170;-61
2023/01/28 07:54:11;;;;;;;8.20;5.53;;;2.30;99.90;;;;;;5017217;28;20209;-63
2023/01/28 07:56:37;;;;;;;4.97;4.47;;;2.30;99.90;;;;;;5028860;28;20170;-64
2023/01/28 07:59:03;;;;;;;7.17;4.80;;;2.40;99.90;;;;;;5033043;28;20531;-63
2023/01/28 08:01:29;;;;;;;8.73;4.30;;;2.40;99.90;;;;;;5032658;28;20178;-62
2023/01/28 08:03:54;;;;;;;8.30;4.50;;;2.30;99.90;;;;;;5025997;28;20441;-63
2023/01/28 08:06:20;;;;;;;7.87;5.43;;;2.30;99.90;;;;;;5027255;28;20182;-62
2023/01/28 08:08:46;;;;;;;8.10;5.73;;;2.40;99.90;;;;;;5029786;28;20697;-63
2023/01/28 08:11:12;;;;;;;8.32;5.93;;;2.30;99.90;;;;;;5023348;28;20185;-65
2023/01/28 08:13:38;;;;;;;9.97;5.30;;;2.30;99.90;;;;;;5031983;28;20273;-63
2023/01/28 08:16:04;;;;;;;4.67;3.70;;;2.40;99.90;;;;;;5032028;28;20166;-71
2023/01/28 08:18:29;;;;;;;12.00;4.55;;;2.40;99.90;;;;;;5029727;28;20206;-70
2023/01/28 08:20:56;;;;;;;5.70;4.83;;;2.40;99.90;;;;;;5026566;28;20177;-67
2023/01/28 08:23:22;;;;;;;7.38;5.57;;;2.40;99.90;;;;;;5030889;28;20640;-68
2023/01/28 08:25:47;;;;;;;9.90;6.47;;;2.50;99.90;;;;;;5031634;28;20225;-68
2023/01/28 08:28:14;;;;;;;5.83;5.23;;;2.60;99.90;;;;;;5020918;28;20178;-62
2023/01/28 08:30:40;;;;;;;7.47;6.20;;;2.70;99.90;;;;;;5022323;28;20183;-61
2023/01/28 08:33:07;;;;;;;6.22;4.90;;;2.80;99.90;;;;;;5023717;28;20579;-66
2023/01/28 08:35:33;;;;;;;10.23;5.65;;;2.80;99.90;;;;;;5023442;28;20197;-63
2023/01/28 08:38:01;;;;;;;8.37;5.07;;;2.90;99.90;;;;;;5016466;28;20209;-64
2023/01/28 08:40:27;;;;;;;7.00;6.38;;;2.90;99.90;;;;;;5030220;28;20220;-62
2023/01/28 08:42:53;;;;;;;6.75;5.55;;;3.00;99.90;;;;;;5032974;28;20616;-63
2023/01/28 08:45:23;;;;;;;7.32;5.43;;;3.10;99.90;;;;;;5035325;28;20559;-64
2023/01/28 08:47:49;;;;;;;10.85;6.18;;;3.20;99.90;;;;;;5033841;28;20221;-64
2023/01/28 08:50:17;;;;;;;7.10;5.43;;;3.30;99.90;;;;;;5026726;28;20539;-62
2023/01/28 08:52:43;;;;;;;6.75;4.43;;;3.30;99.90;;;;;;5016652;28;20171;-64
2023/01/28 08:55:10;;;;;;;6.75;5.43;;;3.30;99.90;;;;;;5017784;28;20206;-63
2023/01/28 08:57:35;;;;;;;8.15;5.00;;;3.40;99.90;;;;;;5016874;28;20214;-65
2023/01/28 09:00:01;;;;;;;8.37;5.60;;;3.40;99.90;;;;;;5016796;28;20517;-65
2023/01/28 09:02:27;;;;;;;9.30;6.73;;;3.40;99.90;;;;;;5026864;28;20250;-65
2023/01/28 09:04:52;;;;;;;7.17;5.73;;;3.50;99.90;;;;;;5028006;28;20197;-64
2023/01/28 09:07:18;;;;;;;8.13;6.00;;;3.50;99.90;;;;;;5036325;28;20260;-64
2023/01/28 09:09:44;;;;;;;8.93;5.90;;;3.60;99.90;;;;;;5024719;28;20177;-65
2023/01/28 09:12:10;;;;;;;7.27;5.80;;;3.70;99.90;;;;;;5030659;28;20535;-61
2023/01/28 09:14:35;;;;;;;8.80;5.63;;;3.70;99.90;;;;;;5035748;28;20193;-65
2023/01/28 09:17:03;;;;;;;6.57;5.40;;;3.80;99.90;;;;;;5033140;28;20175;-64
2023/01/28 09:19:28;;;;;;;9.55;6.15;;;3.90;99.90;;;;;;5016055;28;20476;-63
2023/01/28 09:21:54;;;;;;;6.83;4.87;;;3.90;99.90;;;;;;5015923;28;20183;-63
2023/01/28 09:24:20;;;;;;;9.20;4.30;;;3.90;99.90;;;;;;5015396;28;20190;-65
2023/01/28 09:26:48;;;;;;;9.55;5.95;;;3.90;99.90;;;;;;5020946;28;20182;-64
2023/01/28 09:29:14;;;;;;;5.72;5.18;;;4.00;99.90;;;;;;5016026;28;20178;-64
2023/01/28 09:31:41;;;;;;;6.80;4.60;;;4.00;99.90;;;;;;5015736;28;20175;-64
2023/01/28 09:34:07;;;;;;;7.82;5.95;;;4.10;99.90;;;;;;5015168;28;20430;-64
2023/01/28 09:36:33;;;;;;;8.93;5.70;;;4.20;99.90;;;;;;5015849;28;20166;-64
2023/01/28 09:38:58;;;;;;;11.43;6.60;;;4.20;99.90;;;;;;5025761;28;20248;-65
2023/01/28 09:41:27;;;;;;;10.07;6.03;;;4.30;99.90;;;;;;5035379;28;20210;-64
2023/01/28 09:43:56;;;;;;;5.45;4.60;;;4.30;99.90;;;;;;5034716;28;20591;-63
2023/01/28 09:46:30;;;;;;;9.85;6.15;;;4.30;99.90;;;;;;5035247;28;20178;-63
2023/01/28 09:48:57;;;;;;;8.55;5.60;;;4.30;99.90;;;;;;5035187;28;20203;-60
2023/01/28 09:51:40;;;;;;;8.23;4.68;;;4.20;99.90;;;;;;5016421;28;20667;-59
2023/01/28 09:54:22;;;;;;;6.80;4.85;;;4.20;99.90;;;;;;5013548;28;20202;-61
2023/01/28 09:56:55;;;;;;;6.93;5.60;;;4.20;99.90;;;;;;5014694;28;20635;-62
2023/01/28 09:59:22;;;;;;;6.93;5.40;;;4.10;99.90;;;;;;5014978;28;20256;-60
2023/01/28 10:02:03;;;;;;;7.85;5.43;;;4.00;99.90;;;;;;5014910;28;20164;-64
2023/01/28 10:04:40;;;;;;;6.53;4.90;;;4.00;99.90;;;;;;5019359;28;20192;-62
2023/01/28 10:07:35;;;;;;;8.35;5.45;;;3.90;99.90;;;;;;5028594;28;20324;-66
2023/01/28 10:10:24;;;;;;;8.07;5.55;;;3.80;99.90;;;;;;4995577;28;20199;-65
2023/01/28 10:13:14;;;;;;;7.38;5.68;;;3.80;99.90;;;;;;4995244;28;20225;-66
2023/01/28 10:16:09;;;;;;;9.65;6.60;;;3.70;99.90;;;;;;4996641;28;20242;-63
2023/01/28 10:19:03;;;;;;;8.27;5.82;;;3.60;99.90;;;;;;5016581;28;20564;-64
2023/01/28 10:21:57;;;;;;;6.70;5.65;;;3.50;99.90;;;;;;4994107;28;20537;-64
2023/01/28 10:24:31;;;;;;;8.57;6.10;;;3.50;99.90;;;;;;4994826;28;20202;-63
2023/01/28 10:26:57;;;;;;;7.45;5.88;;;3.50;99.90;;;;;;5015004;28;20719;-65
2023/01/28 10:29:27;;;;;;;7.55;5.20;;;3.40;99.90;;;;;;5034116;28;20190;-64
2023/01/28 10:32:04;;;;;;;6.43;4.15;;;3.40;99.90;;;;;;5034634;28;20181;-64
2023/01/28 10:34:30;;;;;;;8.77;5.78;;;3.40;99.90;;;;;;5033235;28;20201;-65
2023/01/28 10:36:57;;;;;;;6.57;5.43;;;3.50;99.90;;;;;;5034425;28;20181;-64
2023/01/28 10:39:25;;;;;;;9.07;6.13;;;3.50;99.90;;;;;;5017670;28;20665;-63
2023/01/28 10:41:51;;;;;;;11.60;6.70;;;3.40;99.90;;;;;;5012777;28;20195;-65
2023/01/28 10:44:27;;;;;;;9.05;5.47;;;3.40;99.90;;;;;;5012199;28;20190;-65
2023/01/28 10:46:58;;;;;;;6.38;5.78;;;3.40;99.90;;;;;;5013427;28;20258;-64
2023/01/28 10:49:29;;;;;;;9.40;6.72;;;3.50;99.90;;;;;;5013685;28;20224;-65
2023/01/28 10:51:55;;;;;;;8.45;5.07;;;3.60;99.90;;;;;;5012233;28;20540;-65
2023/01/28 10:54:23;;;;;;;6.50;4.70;;;3.60;99.90;;;;;;5013627;28;20194;-63
2023/01/28 10:56:56;;;;;;;8.15;6.28;;;3.60;99.90;;;;;;5014714;28;20173;-65
2023/01/28 10:59:40;;;;;;;11.07;5.90;;;3.70;99.90;;;;;;5014852;28;20611;-65
2023/01/28 11:02:21;;;;;;;10.48;5.78;;;3.70;99.90;;;;;;5021050;28;20147;-63
2023/01/28 11:04:47;;;;;;;7.72;4.75;;;3.70;99.90;;;;;;5022782;28;20221;-65
2023/01/28 11:07:18;;;;;;;9.67;5.37;;;3.70;99.90;;;;;;5022459;28;20165;-63
2023/01/28 11:09:47;;;;;;;8.30;5.85;;;3.70;99.90;;;;;;5022786;28;20202;-62
2023/01/28 11:12:27;;;;;;;7.28;6.45;;;3.70;99.90;;;;;;5019243;28;20174;-64
2023/01/28 11:15:01;;;;;;;6.88;4.90;;;3.70;99.90;;;;;;5020655;28;20187;-65
2023/01/28 11:17:34;;;;;;;11.63;5.82;;;3.70;99.90;;;;;;5016625;28;20180;-66
2023/01/28 11:20:10;;;;;;;5.82;5.03;;;3.70;99.90;;;;;;5014792;28;20175;-65
2023/01/28 11:22:39;;;;;;;7.10;5.30;;;3.70;99.90;;;;;;5014459;28;20182;-65
2023/01/28 11:25:18;;;;;;;5.57;4.25;;;3.60;99.90;;;;;;5014524;28;20209;-66
2023/01/28 11:27:49;;;;;;;7.82;5.43;;;3.70;99.90;;;;;;5018145;28;20171;-65
2023/01/28 11:30:39;;;;;;;7.40;4.68;;;3.70;99.90;;;;;;5036900;28;20186;-66
2023/01/28 11:33:30;;;;;;;7.80;6.32;;;3.70;99.90;;;;;;5038744;28;20166;-66
2023/01/28 11:36:04;;;;;;;7.65;6.22;;;3.70;99.90;;;;;;5038161;28;20253;-63
2023/01/28 11:38:30;;;;;;;7.53;4.90;;;3.70;99.90;;;;;;5034161;28;20202;-65
2023/01/28 11:40:57;;;;;;;9.17;6.70;;;3.70;99.90;;;;;;5033650;28;20162;-64
2023/01/28 11:43:28;;;;;;;5.95;5.25;;;3.60;99.90;;;;;;5033457;28;20174;-62
2023/01/28 11:46:15;;;;;;;6.75;6.07;;;3.60;99.90;;;;;;5033671;28;20455;-65
2023/01/28 11:48:55;;;;;;;10.15;6.57;;;3.50;99.90;;;;;;5033134;28;20261;-65
2023/01/28 11:51:26;;;;;;;8.23;5.57;;;3.60;99.90;;;;;;5033360;28;20173;-66
2023/01/28 11:54:22;;;;;;;8.98;5.72;;;3.60;99.90;;;;;;5032468;28;20198;-65
2023/01/28 11:57:06;;;;;;;5.78;5.03;;;3.60;99.90;;;;;;5033382;28;20245;-65
2023/01/28 11:59:31;;;;;;;9.57;5.32;;;3.70;99.90;;;;;;5033314;28;20208;-64
2023/01/28 12:02:34;;;;;;;7.80;4.97;;;3.70;99.90;;;;;;5033241;28;20173;-65
2023/01/28 12:05:22;;;;;;;10.13;6.50;;;3.70;99.90;;;;;;5032691;28;20218;-66
2023/01/28 12:08:04;;;;;;;11.00;6.25;;;3.70;99.90;;;;;;5032916;28;20180;-66
2023/01/28 12:11:01;;;;;;;7.30;5.22;;;3.60;99.90;;;;;;5033552;28;20178;-65
2023/01/28 12:14:11;;;;;;;9.02;5.88;;;3.60;99.90;;;;;;5032834;28;20197;-66
2023/01/28 12:16:49;;;;;;;8.30;5.30;;;3.50;99.90;;;;;;4972225;28;20187;-64
2023/01/28 12:19:35;;;;;;;7.22;6.15;;;3.50;99.90;;;;;;5030809;28;20563;-64
2023/01/28 12:22:28;;;;;;;10.45;5.30;;;3.50;99.90;;;;;;5033624;28;20583;-63
2023/01/28 12:25:33;;;;;;;11.80;6.13;;;3.50;99.90;;;;;;5025489;28;20198;-63
2023/01/28 12:28:16;;;;;;;7.78;5.47;;;3.60;99.90;;;;;;5017539;28;20174;-64
2023/01/28 12:30:57;;;;;;;7.22;5.13;;;3.60;99.90;;;;;;5016949;28;20245;-64
2023/01/28 12:34:02;;;;;;;7.95;6.55;;;3.70;99.90;;;;;;5016810;28;20175;-64
2023/01/28 12:36:49;;;;;;;7.90;4.70;;;3.70;99.90;;;;;;5016703;28;20180;-65
2023/01/28 12:39:34;;;;;;;9.43;4.95;;;3.70;99.90;;;;;;5017208;28;20300;-65
2023/01/28 12:42:14;;;;;;;6.32;4.25;;;3.70;99.90;;;;;;5016970;28;20178;-65
2023/01/28 12:44:55;;;;;;;8.00;4.28;;;3.70;99.90;;;;;;5029708;28;20195;-65
2023/01/28 12:47:33;;;;;;;5.47;4.45;;;3.70;99.90;;;;;;5035481;28;20591;-65
2023/01/28 12:50:35;;;;;;;4.43;3.85;;;3.70;99.90;;;;;;4997226;28;20612;-65
2023/01/28 12:53:23;;;;;;;4.63;4.00;;;3.80;99.90;;;;;;4996676;28;20164;-64
2023/01/28 12:56:09;;;;;;;6.88;3.80;;;3.80;99.90;;;;;;4985979;28;20208;-66
2023/01/28 12:58:57;;;;;;;5.22;4.72;;;3.80;99.90;;;;;;5011474;28;20749;-63
2023/01/28 13:01:38;;;;;;;9.35;5.65;;;3.80;99.90;;;;;;4997013;28;20179;-65
2023/01/28 13:04:24;;;;;;;5.38;4.28;;;3.80;99.90;;;;;;5016135;28;20205;-64
2023/01/28 13:07:03;;;;;;;4.82;3.97;;;3.80;99.90;;;;;;5016428;28;20190;-66
2023/01/28 13:09:32;;;;;;;3.63;3.10;;;3.70;99.90;;;;;;5025732;28;20174;-66
2023/01/28 13:12:01;;;;;;;6.18;3.60;;;3.60;99.90;;;;;;5036289;28;20253;-64
2023/01/28 13:14:30;;;;;;;4.90;3.92;;;3.60;99.90;;;;;;5035540;28;20217;-65
2023/01/28 13:17:11;;;;;;;5.35;3.53;;;3.50;99.90;;;;;;5036170;28;20174;-65
2023/01/28 13:19:41;;;;;;;4.28;3.97;;;3.50;99.90;;;;;;5036076;28;20240;-63
2023/01/28 13:22:29;;;;;;;4.72;3.25;;;3.40;99.90;;;;;;5035936;28;20170;-64
2023/01/28 13:24:55;;;;;;;3.60;3.30;;;3.40;99.90;;;;;;5035104;28;20190;-64
2023/01/28 13:27:24;;;;;;;4.47;3.87;;;3.30;99.90;;;;;;5035830;28;20567;-65
2023/01/28 13:30:05;;;;;;;6.60;4.03;;;3.30;99.90;;;;;;5035786;28;20216;-65
2023/01/28 13:32:34;;;;;;;5.72;5.05;;;3.30;99.90;;;;;;5035586;28;20170;-66
2023/01/28 13:35:26;;;;;;;4.75;3.60;;;3.30;99.90;;;;;;5035224;28;20225;-66
2023/01/28 13:37:52;;;;;;;8.60;3.95;;;3.30;99.90;;;;;;5035066;28;20205;-65
2023/01/28 13:40:25;;;;;;;3.93;3.60;;;3.40;99.90;;;;;;5034278;28;20174;-66
2023/01/28 13:43:04;;;;;;;6.55;4.20;;;3.40;99.90;;;;;;5035195;28;20577;-63
2023/01/28 13:45:30;;;;;;;5.00;3.55;;;3.60;99.90;;;;;;5035421;28;20191;-64
2023/01/28 13:48:13;;;;;;;6.47;4.43;;;3.60;99.90;;;;;;5035514;28;20205;-65
2023/01/28 13:50:42;;;;;;;5.55;3.67;;;3.60;99.90;;;;;;5035431;28;20167;-64
2023/01/28 13:53:32;;;;;;;4.25;3.60;;;3.60;99.90;;;;;;5034676;28;20182;-66
2023/01/28 13:56:06;;;;;;;4.50;3.47;;;3.50;99.90;;;;;;5035786;28;20632;-65
2023/01/28 13:59:02;;;;;;;4.85;3.85;;;3.60;99.90;;;;;;5035386;28;20203;-64
2023/01/28 14:01:39;;;;;;;4.03;2.97;;;3.50;99.90;;;;;;5030702;28;20597;-67
2023/01/28 14:04:34;;;;;;;6.00;2.88;;;3.50;99.90;;;;;;5014998;28;20187;-65
2023/01/28 14:07:11;;;;;;;6.93;4.30;;;3.50;99.90;;;;;;5015304;28;20238;-66
2023/01/28 14:10:03;;;;;;;5.72;2.97;;;3.50;99.90;;;;;;5015328;28;20300;-65
2023/01/28 14:12:46;;;;;;;7.63;4.57;;;3.50;99.90;;;;;;4986765;28;20649;-64
2023/01/28 14:15:36;;;;;;;4.00;2.92;;;3.50;99.90;;;;;;4995298;28;20554;-64
2023/01/28 14:18:11;;;;;;;3.60;3.30;;;3.50;99.90;;;;;;4995577;28;20254;-66
2023/01/28 14:20:43;;;;;;;5.97;4.00;;;3.50;99.90;;;;;;4995590;28;20175;-65
2023/01/28 14:23:20;;;;;;;3.72;3.38;;;3.60;99.90;;;;;;4995050;28;20546;-65
2023/01/28 14:26:14;;;;;;;5.13;3.90;;;3.70;99.90;;;;;;5000924;28;20188;-65
2023/01/28 14:28:46;;;;;;;5.05;3.50;;;3.80;99.90;;;;;;5014903;28;20221;-65
2023/01/28 14:31:23;;;;;;;4.10;3.58;;;3.90;99.90;;;;;;5014927;28;20176;-66
2023/01/28 14:33:49;;;;;;;6.28;4.20;;;3.80;99.90;;;;;;5019597;28;20198;-62
2023/01/28 14:36:15;;;;;;;4.30;3.90;;;3.80;99.90;;;;;;5034943;28;20174;-65
2023/01/28 14:38:42;;;;;;;4.95;4.05;;;3.80;99.90;;;;;;5034310;28;20600;-64
2023/01/28 14:41:17;;;;;;;5.70;4.05;;;3.70;99.90;;;;;;5034475;28;20179;-67
2023/01/28 14:43:43;;;;;;;5.15;3.83;;;3.70;99.90;;;;;;5025225;28;20560;-66
2023/01/28 14:46:53;;;;;;;4.20;3.80;;;3.70;99.90;;;;;;5014637;28;20242;-66
2023/01/28 14:49:39;;;;;;;3.80;3.50;;;3.70;99.90;;;;;;5007633;28;20241;-66
2023/01/28 14:52:12;;;;;;;3.72;3.15;;;3.70;99.90;;;;;;5010988;28;20328;-66
2023/01/28 14:55:00;;;;;;;3.03;2.80;;;3.70;99.90;;;;;;5014128;28;20208;-65
2023/01/28 14:57:37;;;;;;;4.05;3.58;;;3.60;99.90;;;;;;5014392;28;20225;-66
2023/01/28 15:00:14;;;;;;;3.25;2.97;;;3.70;99.90;;;;;;5024640;28;20170;-63
2023/01/28 15:02:43;;;;;;;3.45;3.15;;;3.60;99.90;;;;;;5033620;28;20231;-64
2023/01/28 15:05:17;;;;;;;4.32;3.08;;;3.70;99.90;;;;;;5027587;28;20221;-67
2023/01/28 15:07:45;;;;;;;3.58;3.25;;;3.60;99.90;;;;;;5015147;28;20636;-67
2023/01/28 15:10:14;;;;;;;4.45;3.03;;;3.60;99.90;;;;;;5034096;28;20170;-68
2023/01/28 15:12:46;;;;;;;3.13;2.88;;;3.60;99.90;;;;;;5028433;28;20170;-68
2023/01/28 15:15:27;;;;;;;4.20;3.08;;;3.50;99.90;;;;;;5012451;28;20732;-68
2023/01/28 15:18:00;;;;;;;3.63;2.97;;;3.50;99.90;;;;;;5014106;28;20199;-68
2023/01/28 15:20:27;;;;;;;6.93;3.70;;;3.50;99.90;;;;;;5013938;28;20178;-66
2023/01/28 15:22:53;;;;;;;3.97;3.58;;;3.40;99.90;;;;;;5013248;28;20192;-67
2023/01/28 15:25:21;;;;;;;5.97;3.03;;;3.40;99.90;;;;;;5013746;28;20278;-67
2023/01/28 15:27:48;;;;;;;5.43;4.47;;;3.30;99.90;;;;;;5013708;28;20432;-68
2023/01/28 15:30:23;;;;;;;4.43;2.97;;;3.30;99.90;;;;;;5024941;28;20189;-66
2023/01/28 15:33:04;;;;;;;5.20;3.22;;;3.30;99.90;;;;;;5033314;28;20193;-66
2023/01/28 15:35:30;;;;;;;3.50;3.20;;;3.20;99.90;;;;;;5027314;28;20186;-68
2023/01/28 15:37:56;;;;;;;2.67;2.47;;;3.20;99.90;;;;;;5008617;28;20657;-66
2023/01/28 15:40:22;;;;;;;4.13;3.83;;;3.20;99.90;;;;;;5009276;28;20175;-65
2023/01/28 15:42:49;;;;;;;3.40;3.10;;;3.10;99.90;;;;;;5012239;28;20171;-68
2023/01/28 15:45:20;;;;;;;3.83;3.53;;;3.10;99.90;;;;;;5010410;28;20194;-67
2023/01/28 15:47:48;;;;;;;3.40;3.03;;;3.10;99.90;;;;;;5016057;28;20181;-66
2023/01/28 15:50:22;;;;;;;3.78;3.28;;;3.10;99.90;;;;;;5015500;28;20197;-65
2023/01/28 15:52:49;;;;;;;5.25;3.05;;;3.10;99.90;;;;;;5024983;28;20189;-66
2023/01/28 15:55:38;;;;;;;4.95;3.90;;;3.10;99.90;;;;;;5018985;28;20211;-67
2023/01/28 15:58:29;;;;;;;3.50;2.70;;;3.10;99.90;;;;;;5020270;28;20190;-66
2023/01/28 16:01:07;;;;;;;3.42;3.10;;;3.10;99.90;;;;;;5021748;28;20174;-65
2023/01/28 16:03:35;;;;;;;4.22;3.72;;;3.00;99.90;;;;;;5022976;28;20174;-68
2023/01/28 16:06:20;;;;;;;3.85;2.92;;;3.00;99.90;;;;;;5010985;28;20185;-67
2023/01/28 16:08:59;;;;;;;3.95;3.63;;;3.00;99.90;;;;;;5010509;28;20248;-66
2023/01/28 16:11:36;;;;;;;3.35;2.90;;;3.00;99.90;;;;;;5012938;28;20522;-70
2023/01/28 16:14:02;;;;;;;3.70;3.40;;;3.00;99.90;;;;;;5017392;28;20601;-70
2023/01/28 16:16:36;;;;;;;4.72;3.70;;;3.00;99.90;;;;;;5005034;28;20227;-66
2023/01/28 16:19:05;;;;;;;3.08;2.88;;;2.90;99.90;;;;;;5013222;28;20191;-67
2023/01/28 16:21:36;;;;;;;4.47;4.15;;;3.00;99.90;;;;;;5014065;28;20170;-69
2023/01/28 16:24:22;;;;;;;3.28;2.90;;;2.90;99.90;;;;;;5012538;28;20198;-68
2023/01/28 16:27:08;;;;;;;4.45;3.53;;;2.90;99.90;;;;;;5006235;28;20196;-68
2023/01/28 16:29:34;;;;;;;3.60;3.40;;;3.00;99.90;;;;;;5006431;28;20179;-69
2023/01/28 16:32:01;;;;;;;3.80;3.13;;;2.90;99.90;;;;;;5025737;28;20631;-66
2023/01/28 16:34:27;;;;;;;7.57;4.50;;;2.90;99.90;;;;;;5020794;28;20199;-67
2023/01/28 16:36:58;;;;;;;6.30;3.13;;;3.00;99.90;;;;;;5007469;28;20659;-66
2023/01/28 16:39:23;;;;;;;4.68;3.67;;;3.00;99.90;;;;;;5020516;28;20190;-67
2023/01/28 16:41:49;;;;;;;4.17;3.87;;;3.00;99.90;;;;;;5020466;28;20174;-66
2023/01/28 16:44:16;;;;;;;3.50;3.20;;;3.00;99.90;;;;;;5022440;28;20230;-65
2023/01/28 16:46:42;;;;;;;4.75;3.33;;;2.90;99.90;;;;;;5025671;28;20179;-67
2023/01/28 16:49:09;;;;;;;3.72;2.60;;;2.90;99.90;;;;;;5009542;28;20186;-68
2023/01/28 16:51:37;;;;;;;4.80;3.13;;;2.90;99.90;;;;;;5005027;28;20175;-66
2023/01/28 16:54:03;;;;;;;5.20;2.95;;;2.90;99.90;;;;;;5020369;28;20203;-66
2023/01/28 16:56:29;;;;;;;3.65;2.92;;;2.90;99.90;;;;;;5024133;28;20547;-67
2023/01/28 16:58:56;;;;;;;3.35;2.53;;;2.90;99.90;;;;;;5027154;28;20205;-67
2023/01/28 17:01:21;;;;;;;4.40;3.13;;;2.90;99.90;;;;;;5022721;28;20221;-66
2023/01/28 17:03:47;;;;;;;3.53;3.00;;;2.80;99.90;;;;;;5022090;28;20193;-66
2023/01/28 17:06:18;;;;;;;3.77;3.43;;;2.80;99.90;;;;;;5033381;28;20260;-68
2023/01/28 17:08:44;;;;;;;2.15;2.05;;;2.90;99.90;;;;;;5023754;28;20170;-64
2023/01/28 17:11:12;;;;;;;3.10;2.90;;;2.90;99.90;;;;;;5020135;28;20189;-66
2023/01/28 17:13:38;;;;;;;4.70;4.25;;;2.90;99.90;;;;;;5035540;28;20420;-67
2023/01/28 17:16:04;;;;;;;3.25;2.47;;;2.90;99.90;;;;;;5023394;28;20205;-66
2023/01/28 17:18:30;;;;;;;4.07;3.70;;;2.90;99.90;;;;;;5035518;28;20582;-66
2023/01/28 17:21:05;;;;;;;4.50;3.65;;;2.90;99.90;;;;;;5023541;28;20900;-66
2023/01/28 17:23:31;;;;;;;3.42;3.13;;;2.90;99.90;;;;;;5026067;28;20170;-64
2023/01/28 17:26:03;;;;;;;3.47;2.77;;;2.90;99.90;;;;;;5015210;28;20179;-67
2023/01/28 17:28:29;;;;;;;3.53;3.10;;;2.80;99.90;;;;;;5034655;28;20214;-70
2023/01/28 17:30:54;;;;;;;4.00;3.60;;;2.80;99.90;;;;;;5016555;28;20206;-69
2023/01/28 17:33:20;;;;;;;4.60;3.30;;;2.80;99.90;;;;;;5024466;28;20186;-68
2023/01/28 17:35:47;;;;;;;4.40;4.10;;;2.80;99.90;;;;;;4996439;28;20198;-68
2023/01/28 17:38:12;;;;;;;3.22;3.00;;;2.80;99.90;;;;;;5023605;28;20601;-67
2023/01/28 17:40:40;;;;;;;4.33;4.03;;;2.90;99.90;;;;;;5010003;28;20407;-70
2023/01/28 17:43:06;;;;;;;4.53;3.85;;;2.90;99.90;;;;;;5024300;28;20179;-71
2023/01/28 17:45:32;;;;;;;4.47;2.77;;;2.90;99.90;;;;;;4996065;28;20203;-74
2023/01/28 17:47:57;;;;;;;6.67;4.70;;;2.80;99.90;;;;;;5029956;28;20265;-68
2023/01/28 17:50:23;;;;;;;4.70;3.37;;;2.80;99.90;;;;;;5017863;28;20918;-69
2023/01/28 17:52:54;;;;;;;3.93;3.63;;;2.80;99.90;;;;;;5019688;28;20178;-69
2023/01/28 17:55:19;;;;;;;5.45;4.20;;;2.80;99.90;;;;;;5021389;28;20202;-71
2023/01/28 17:57:45;;;;;;;5.10;3.43;;;2.80;99.90;;;;;;5033649;28;20281;-70
2023/01/28 18:00:11;;;;;;;3.33;3.03;;;2.70;99.90;;;;;;5029766;28;20249;-71
2023/01/28 18:02:36;;;;;;;2.83;2.55;;;2.70;99.90;;;;;;5015573;28;20182;-68
2023/01/28 18:05:02;;;;;;;3.30;3.00;;;2.70;99.90;;;;;;5031224;28;20267;-70
2023/01/28 18:07:28;;;;;;;4.80;3.60;;;2.70;99.90;;;;;;5025624;28;20201;-70
2023/01/28 18:09:53;;;;;;;4.47;4.07;;;2.70;99.90;;;;;;5034318;28;20285;-66
2023/01/28 18:12:19;;;;;;;4.80;3.70;;;2.70;99.90;;;;;;5026064;28;20183;-71
2023/01/28 18:14:44;;;;;;;2.70;2.50;;;2.70;99.90;;;;;;5021604;28;20324;-68
2023/01/28 18:17:10;;;;;;;3.93;3.53;;;2.70;99.90;;;;;;5022011;28;20183;-68
2023/01/28 18:19:36;;;;;;;2.63;2.43;;;2.60;99.90;;;;;;5016040;28;20205;-70
2023/01/28 18:22:01;;;;;;;3.90;3.53;;;2.60;99.90;;;;;;5014700;28;20249;-68